Time;durP1;ratioP1;P1;durP2;ratioP2;P2;SDS_P1;SDS_P2;PMS_P1;PMS_P2;Temp;Humidity;BMP_temperature;BMP_pressure;BME280_temperature;BME280_humidity;BME280_pressure;Samples;Min_cycle;Max_cycle;Signal;HPM_P1;HPM_P2
2022/01/29 00:01:05;;;;;;;47.65;9.55;;;;;;;;;;4985955;28;20103;-71
2022/01/29 00:03:31;;;;;;;51.50;10.40;;;;;;;;;;4985482;28;20030;-71
2022/01/29 00:05:58;;;;;;;65.97;11.90;;;;;;;;;;4975462;28;20041;-71
2022/01/29 00:08:24;;;;;;;62.28;10.13;;;;;;;;;;4986061;28;20171;-71
2022/01/29 00:11:02;;;;;;;49.90;9.68;;;;;;;;;;4987204;28;20034;-71
2022/01/29 00:13:27;;;;;;;54.40;9.75;;;;;;;;;;4986565;28;20041;-71
2022/01/29 00:15:55;;;;;;;50.13;9.52;;;;;;;;;;4986013;28;20033;-71
2022/01/29 00:18:21;;;;;;;59.65;10.20;;;;;;;;;;4986163;28;20040;-71
2022/01/29 00:20:47;;;;;;;54.90;10.38;;;;;;;;;;4985797;28;20314;-71
2022/01/29 00:23:14;;;;;;;48.35;9.70;;;;;;;;;;4986650;28;20486;-71
2022/01/29 00:25:40;;;;;;;53.97;9.45;;;;;;;;;;5001569;28;20033;-71
2022/01/29 00:28:12;;;;;;;54.13;9.45;;;;;;;;;;4986295;28;20064;-71
2022/01/29 00:30:41;;;;;;;62.67;11.13;;;;;;;;;;4986702;28;20769;-71
2022/01/29 00:33:07;;;;;;;54.80;10.27;;;;;;;;;;4986929;28;20747;-71
2022/01/29 00:35:32;;;;;;;49.28;10.23;;;;;;;;;;4986497;28;20054;-71
2022/01/29 00:38:00;;;;;;;54.40;10.25;;;;;;;;;;4986243;28;20021;-71
2022/01/29 00:40:26;;;;;;;38.90;10.60;;;;;;;;;;4990861;28;20105;-71
2022/01/29 00:42:52;;;;;;;53.72;10.98;;;;;;;;;;4990308;28;20030;-71
2022/01/29 00:45:19;;;;;;;54.55;11.73;;;;;;;;;;4986290;28;20334;-70
2022/01/29 00:47:45;;;;;;;59.13;11.10;;;;;;;;;;4975013;28;20044;-71
2022/01/29 00:50:14;;;;;;;41.22;10.90;;;;;;;;;;4986546;28;20046;-72
2022/01/29 00:52:39;;;;;;;54.30;11.57;;;;;;;;;;4989332;28;20386;-71
2022/01/29 00:55:08;;;;;;;57.65;14.55;;;;;;;;;;4990044;28;20034;-72
2022/01/29 00:57:38;;;;;;;60.17;14.05;;;;;;;;;;4990056;28;20045;-71
2022/01/29 01:00:05;;;;;;;59.30;14.05;;;;;;;;;;4989857;28;20129;-73
2022/01/29 01:02:33;;;;;;;56.17;13.93;;;;;;;;;;4989472;28;20230;-72
2022/01/29 01:05:00;;;;;;;50.10;12.07;;;;;;;;;;4990128;28;20037;-69
2022/01/29 01:07:26;;;;;;;45.08;13.13;;;;;;;;;;4978423;28;20033;-71
2022/01/29 01:09:52;;;;;;;53.97;12.98;;;;;;;;;;4977891;28;20746;-71
2022/01/29 01:12:17;;;;;;;56.78;13.25;;;;;;;;;;4990364;28;20033;-71
2022/01/29 01:14:45;;;;;;;59.92;13.10;;;;;;;;;;4989344;28;20127;-71
2022/01/29 01:17:10;;;;;;;42.80;12.55;;;;;;;;;;4989520;28;20124;-71
2022/01/29 01:19:35;;;;;;;59.55;12.93;;;;;;;;;;4988730;28;20030;-71
2022/01/29 01:22:01;;;;;;;53.03;12.95;;;;;;;;;;4994417;28;20038;-71
2022/01/29 01:24:29;;;;;;;56.28;12.15;;;;;;;;;;4989290;28;20673;-71
2022/01/29 01:26:56;;;;;;;60.03;12.48;;;;;;;;;;4990236;28;20038;-71
2022/01/29 01:29:26;;;;;;;52.80;12.73;;;;;;;;;;4993210;28;20036;-71
2022/01/29 01:31:51;;;;;;;54.97;14.15;;;;;;;;;;4988168;28;20061;-71
2022/01/29 01:34:21;;;;;;;59.65;13.25;;;;;;;;;;4988347;28;20545;-72
2022/01/29 01:36:53;;;;;;;64.78;13.45;;;;;;;;;;4987518;28;20402;-71
2022/01/29 01:39:22;;;;;;;54.15;13.75;;;;;;;;;;4987654;28;20626;-70
2022/01/29 01:42:03;;;;;;;48.67;13.40;;;;;;;;;;4988857;28;20038;-71
2022/01/29 01:44:33;;;;;;;51.90;13.45;;;;;;;;;;4989054;28;20038;-71
2022/01/29 01:47:03;;;;;;;51.83;14.82;;;;;;;;;;4988523;28;20104;-71
2022/01/29 01:49:31;;;;;;;53.90;16.17;;;;;;;;;;4987378;28;20125;-71
2022/01/29 01:51:57;;;;;;;53.40;15.43;;;;;;;;;;4993229;28;20042;-70
2022/01/29 01:54:22;;;;;;;51.70;13.85;;;;;;;;;;4988685;28;21919;-71
2022/01/29 01:56:47;;;;;;;58.08;16.15;;;;;;;;;;4987962;28;20034;-71
2022/01/29 01:59:15;;;;;;;51.03;15.30;;;;;;;;;;4988487;28;20034;-70
2022/01/29 02:01:40;;;;;;;47.42;15.27;;;;;;;;;;4993238;28;20474;-71
2022/01/29 02:04:06;;;;;;;54.28;17.10;;;;;;;;;;4977042;28;20044;-71
2022/01/29 02:06:31;;;;;;;61.22;16.30;;;;;;;;;;4993196;28;20037;-71
2022/01/29 02:08:59;;;;;;;50.88;16.40;;;;;;;;;;4988976;28;20868;-71
2022/01/29 02:11:25;;;;;;;54.72;16.63;;;;;;;;;;4988999;28;20045;-70
2022/01/29 02:14:00;;;;;;;55.10;17.02;;;;;;;;;;4988233;28;20038;-69
2022/01/29 02:16:30;;;;;;;55.05;16.13;;;;;;;;;;4973110;28;20030;-70
2022/01/29 02:18:56;;;;;;;56.38;15.95;;;;;;;;;;4988077;28;20030;-70
2022/01/29 02:21:24;;;;;;;57.15;14.93;;;;;;;;;;4988495;28;20205;-71
2022/01/29 02:23:49;;;;;;;50.90;13.95;;;;;;;;;;4988680;28;20168;-70
2022/01/29 02:26:14;;;;;;;57.92;14.23;;;;;;;;;;4976121;28;20241;-70
2022/01/29 02:28:40;;;;;;;49.97;13.30;;;;;;;;;;4988181;28;20029;-70
2022/01/29 02:31:05;;;;;;;60.83;15.20;;;;;;;;;;4988020;28;20563;-72
2022/01/29 02:33:34;;;;;;;64.15;15.27;;;;;;;;;;4987437;28;20102;-70
2022/01/29 02:36:00;;;;;;;62.17;15.68;;;;;;;;;;4986504;28;20025;-70
2022/01/29 02:38:26;;;;;;;58.90;15.63;;;;;;;;;;4988251;28;20075;-70
2022/01/29 02:40:59;;;;;;;49.60;14.85;;;;;;;;;;4987741;28;20046;-70
2022/01/29 02:43:32;;;;;;;64.90;16.00;;;;;;;;;;4988018;28;20092;-70
2022/01/29 02:46:05;;;;;;;51.70;14.70;;;;;;;;;;4987633;28;20063;-70
2022/01/29 02:48:30;;;;;;;54.75;15.80;;;;;;;;;;4981592;28;21971;-70
2022/01/29 02:50:55;;;;;;;73.28;16.73;;;;;;;;;;4988077;28;20395;-70
2022/01/29 02:53:23;;;;;;;52.25;15.13;;;;;;;;;;4992238;28;20084;-70
2022/01/29 02:55:48;;;;;;;64.65;15.23;;;;;;;;;;4986337;28;20041;-70
2022/01/29 02:58:24;;;;;;;65.50;15.60;;;;;;;;;;4986091;28;20026;-70
2022/01/29 03:00:50;;;;;;;56.53;15.38;;;;;;;;;;4987219;28;20030;-70
2022/01/29 03:03:15;;;;;;;75.40;16.23;;;;;;;;;;4991485;28;20046;-70
2022/01/29 03:05:41;;;;;;;64.30;15.60;;;;;;;;;;4986492;28;20042;-71
2022/01/29 03:08:09;;;;;;;53.55;14.52;;;;;;;;;;4986016;28;20470;-70
2022/01/29 03:10:34;;;;;;;57.88;14.35;;;;;;;;;;4976161;28;20096;-70
2022/01/29 03:12:59;;;;;;;60.30;14.75;;;;;;;;;;4990834;28;20058;-70
2022/01/29 03:15:25;;;;;;;51.60;13.95;;;;;;;;;;4975089;28;20030;-70
2022/01/29 03:17:50;;;;;;;58.08;14.07;;;;;;;;;;4992266;28;20038;-70
2022/01/29 03:20:15;;;;;;;58.92;14.25;;;;;;;;;;4984959;28;20092;-70
2022/01/29 03:22:40;;;;;;;59.30;14.82;;;;;;;;;;4986076;28;20037;-70
2022/01/29 03:25:07;;;;;;;58.95;13.35;;;;;;;;;;4986659;28;20044;-70
2022/01/29 03:27:32;;;;;;;55.90;14.65;;;;;;;;;;4986069;28;20072;-70
2022/01/29 03:30:00;;;;;;;62.47;14.15;;;;;;;;;;4985123;28;20029;-70
2022/01/29 03:32:31;;;;;;;67.95;14.30;;;;;;;;;;4986755;28;20103;-70
2022/01/29 03:34:56;;;;;;;58.95;14.10;;;;;;;;;;4974596;28;20152;-70
2022/01/29 03:37:21;;;;;;;58.35;15.00;;;;;;;;;;4987199;28;20033;-71
2022/01/29 03:39:47;;;;;;;53.40;13.43;;;;;;;;;;4990763;28;20061;-70
2022/01/29 03:42:15;;;;;;;61.58;14.18;;;;;;;;;;4991232;28;20038;-69
2022/01/29 03:44:41;;;;;;;56.15;13.60;;;;;;;;;;4988051;28;20136;-71
2022/01/29 03:47:06;;;;;;;72.30;15.27;;;;;;;;;;4987013;28;20652;-71
2022/01/29 03:49:32;;;;;;;67.03;14.30;;;;;;;;;;4986594;28;20474;-71
2022/01/29 03:52:00;;;;;;;56.97;13.57;;;;;;;;;;4986684;28;20061;-71
2022/01/29 03:54:25;;;;;;;56.03;13.05;;;;;;;;;;4986576;28;20118;-71
2022/01/29 03:56:51;;;;;;;65.05;14.20;;;;;;;;;;4986008;28;20034;-72
2022/01/29 03:59:18;;;;;;;60.05;12.90;;;;;;;;;;4991063;28;20355;-71
2022/01/29 04:01:43;;;;;;;66.85;14.88;;;;;;;;;;4986422;28;20022;-72
2022/01/29 04:04:11;;;;;;;75.68;14.10;;;;;;;;;;4986181;28;20606;-72
2022/01/29 04:06:37;;;;;;;63.35;13.57;;;;;;;;;;4985205;28;20025;-70
2022/01/29 04:09:05;;;;;;;68.82;13.07;;;;;;;;;;4986902;28;20452;-71
2022/01/29 04:11:33;;;;;;;60.03;13.35;;;;;;;;;;4986144;28;20069;-71
2022/01/29 04:13:58;;;;;;;60.50;14.05;;;;;;;;;;4986299;28;20561;-71
2022/01/29 04:16:24;;;;;;;56.70;13.30;;;;;;;;;;4985142;28;20027;-72
2022/01/29 04:18:51;;;;;;;56.80;13.07;;;;;;;;;;4985757;28;20056;-70
2022/01/29 04:21:17;;;;;;;70.90;14.38;;;;;;;;;;4987030;28;20052;-70
2022/01/29 04:23:42;;;;;;;58.95;13.57;;;;;;;;;;4986951;28;20359;-71
2022/01/29 04:26:08;;;;;;;59.95;15.15;;;;;;;;;;4989828;28;20040;-72
2022/01/29 04:28:40;;;;;;;67.88;14.00;;;;;;;;;;4994158;28;20033;-71
2022/01/29 04:31:17;;;;;;;50.08;12.57;;;;;;;;;;4979080;28;20103;-71
2022/01/29 04:33:42;;;;;;;64.82;14.00;;;;;;;;;;4990524;28;20556;-71
2022/01/29 04:36:08;;;;;;;54.63;12.98;;;;;;;;;;4994545;28;20021;-71
2022/01/29 04:38:34;;;;;;;65.28;13.55;;;;;;;;;;4988472;28;20500;-71
2022/01/29 04:41:04;;;;;;;70.38;13.18;;;;;;;;;;4979047;28;20068;-71
2022/01/29 04:43:34;;;;;;;50.08;12.38;;;;;;;;;;4989915;28;20453;-70
2022/01/29 04:45:59;;;;;;;52.03;13.25;;;;;;;;;;4990474;28;20026;-71
2022/01/29 04:48:27;;;;;;;54.22;12.27;;;;;;;;;;4990537;28;20138;-71
2022/01/29 04:50:53;;;;;;;63.75;13.40;;;;;;;;;;4994421;28;20754;-70
2022/01/29 04:53:19;;;;;;;48.63;12.20;;;;;;;;;;4987816;28;20033;-71
2022/01/29 04:55:44;;;;;;;64.03;13.70;;;;;;;;;;4989522;28;20018;-71
2022/01/29 04:58:12;;;;;;;61.35;12.52;;;;;;;;;;4990050;28;20056;-71
2022/01/29 05:00:37;;;;;;;67.07;12.90;;;;;;;;;;4988159;28;20045;-71
2022/01/29 05:03:10;;;;;;;57.97;11.57;;;;;;;;;;4978451;28;20637;-69
2022/01/29 05:05:38;;;;;;;61.75;12.65;;;;;;;;;;4994344;28;20355;-69
2022/01/29 05:08:03;;;;;;;62.63;12.68;;;;;;;;;;4994581;28;20034;-71
2022/01/29 05:10:29;;;;;;;73.65;12.85;;;;;;;;;;4989516;28;21933;-71
2022/01/29 05:13:07;;;;;;;62.53;12.18;;;;;;;;;;4990137;28;20040;-70
2022/01/29 05:28:59;;;;;;;67.40;11.98;;;;;;;;;;4990021;28;20042;-70
2022/01/29 05:31:25;;;;;;;57.17;11.30;;;;;;;;;;4989843;28;20246;-71
2022/01/29 05:33:50;;;;;;;64.57;11.48;;;;;;;;;;4988161;28;20025;-71
2022/01/29 05:36:16;;;;;;;56.28;12.35;;;;;;;;;;4988318;28;20477;-70
2022/01/29 05:38:43;;;;;;;57.72;12.00;;;;;;;;;;4988593;28;20030;-70
2022/01/29 05:41:08;;;;;;;67.90;12.25;;;;;;;;;;4989493;28;20038;-70
2022/01/29 05:43:36;;;;;;;54.03;11.63;;;;;;;;;;4988670;28;20084;-71
2022/01/29 05:46:02;;;;;;;47.80;11.15;;;;;;;;;;4988663;28;20026;-71
2022/01/29 05:48:32;;;;;;;62.75;11.98;;;;;;;;;;4988046;28;20430;-70
2022/01/29 05:50:58;;;;;;;55.67;11.77;;;;;;;;;;4976766;28;20429;-71
2022/01/29 05:53:26;;;;;;;48.58;11.43;;;;;;;;;;4988418;28;20286;-70
2022/01/29 05:55:51;;;;;;;53.20;12.07;;;;;;;;;;4988901;28;20046;-70
2022/01/29 05:58:16;;;;;;;62.28;12.43;;;;;;;;;;4976992;28;20030;-70
2022/01/29 06:00:42;;;;;;;48.67;10.15;;;;;;;;;;4988103;28;20270;-70
2022/01/29 06:03:08;;;;;;;52.60;10.02;;;;;;;;;;4988857;28;20524;-72
2022/01/29 06:05:36;;;;;;;44.38;9.65;;;;;;;;;;4988153;28;20760;-70
2022/01/29 06:08:04;;;;;;;54.63;10.10;;;;;;;;;;4988120;28;20095;-72
2022/01/29 06:10:32;;;;;;;46.80;9.23;;;;;;;;;;4988312;28;20041;-71
2022/01/29 06:13:05;;;;;;;50.28;10.00;;;;;;;;;;4977638;28;20083;-70
2022/01/29 06:15:34;;;;;;;59.67;11.68;;;;;;;;;;4987829;28;20030;-70
2022/01/29 06:17:59;;;;;;;55.10;9.55;;;;;;;;;;4993579;28;20034;-70
2022/01/29 06:20:25;;;;;;;51.95;9.48;;;;;;;;;;4988257;28;20096;-71
2022/01/29 06:22:53;;;;;;;54.38;10.50;;;;;;;;;;4988103;28;21887;-70
2022/01/29 06:25:18;;;;;;;38.25;7.82;;;;;;;;;;4976699;28;20030;-70
2022/01/29 06:27:45;;;;;;;43.15;10.18;;;;;;;;;;4988015;28;20033;-70
2022/01/29 06:30:13;;;;;;;52.38;10.88;;;;;;;;;;4986754;28;20057;-69
2022/01/29 06:32:38;;;;;;;55.50;9.98;;;;;;;;;;4988313;28;20085;-70
2022/01/29 06:35:04;;;;;;;51.20;9.50;;;;;;;;;;4987478;28;20037;-69
2022/01/29 06:37:29;;;;;;;49.45;10.00;;;;;;;;;;4975651;28;20061;-71
2022/01/29 06:39:55;;;;;;;42.83;8.70;;;;;;;;;;4988347;28;20061;-71
2022/01/29 06:42:20;;;;;;;46.08;8.63;;;;;;;;;;4987547;28;20048;-71
2022/01/29 06:44:48;;;;;;;41.47;9.90;;;;;;;;;;4987438;28;20471;-71
2022/01/29 06:47:13;;;;;;;41.08;8.02;;;;;;;;;;4987007;28;20041;-70
2022/01/29 06:49:39;;;;;;;41.45;7.47;;;;;;;;;;4986849;28;20041;-71
2022/01/29 06:52:07;;;;;;;42.78;8.02;;;;;;;;;;4987622;28;20042;-70
2022/01/29 06:54:32;;;;;;;44.47;8.63;;;;;;;;;;4988602;28;20462;-71
2022/01/29 06:56:58;;;;;;;45.80;8.10;;;;;;;;;;4988204;28;20033;-70
2022/01/29 06:59:25;;;;;;;55.03;8.82;;;;;;;;;;4988312;28;20045;-69
2022/01/29 07:01:51;;;;;;;46.47;8.30;;;;;;;;;;4987590;28;20120;-69
2022/01/29 07:04:16;;;;;;;50.25;8.48;;;;;;;;;;4988365;28;20030;-70
2022/01/29 07:06:42;;;;;;;39.72;7.93;;;;;;;;;;4988193;28;20140;-70
2022/01/29 07:09:08;;;;;;;43.40;8.35;;;;;;;;;;4976110;28;20045;-70
2022/01/29 07:11:33;;;;;;;46.08;10.07;;;;;;;;;;4987677;28;20038;-70
2022/01/29 07:14:03;;;;;;;45.10;7.53;;;;;;;;;;4988460;28;20049;-70
2022/01/29 07:16:29;;;;;;;52.90;9.05;;;;;;;;;;4987754;28;20682;-70
2022/01/29 07:18:54;;;;;;;57.22;8.90;;;;;;;;;;4987749;28;20026;-70
2022/01/29 07:21:24;;;;;;;38.88;8.20;;;;;;;;;;4976622;28;20064;-70
2022/01/29 07:23:49;;;;;;;56.72;9.15;;;;;;;;;;4988767;28;20029;-70
2022/01/29 07:26:15;;;;;;;41.85;7.80;;;;;;;;;;4987355;28;20033;-71
2022/01/29 07:28:43;;;;;;;51.90;8.38;;;;;;;;;;4988265;28;20041;-70
2022/01/29 07:31:08;;;;;;;46.35;7.32;;;;;;;;;;4987926;28;20511;-69
2022/01/29 07:33:34;;;;;;;44.83;7.53;;;;;;;;;;4986508;28;20034;-71
2022/01/29 07:36:02;;;;;;;48.47;8.63;;;;;;;;;;4992418;28;20034;-70
2022/01/29 07:38:28;;;;;;;43.65;7.57;;;;;;;;;;4987625;28;20056;-71
2022/01/29 07:40:53;;;;;;;48.22;8.48;;;;;;;;;;4988025;28;20058;-69
2022/01/29 07:43:21;;;;;;;44.28;7.95;;;;;;;;;;4987653;28;20070;-71
2022/01/29 07:45:46;;;;;;;53.13;8.05;;;;;;;;;;4988317;28;20133;-70
2022/01/29 07:48:14;;;;;;;52.70;7.40;;;;;;;;;;4987102;28;20034;-71
2022/01/29 07:50:45;;;;;;;45.70;7.45;;;;;;;;;;4988252;28;20076;-71
2022/01/29 07:53:10;;;;;;;44.00;6.80;;;;;;;;;;4987689;28;20052;-68
2022/01/29 07:55:38;;;;;;;45.17;7.18;;;;;;;;;;4988111;28;20037;-70
2022/01/29 07:58:05;;;;;;;45.40;6.93;;;;;;;;;;4987776;28;20037;-72
2022/01/29 08:00:30;;;;;;;48.60;7.38;;;;;;;;;;4985371;28;20038;-70
2022/01/29 08:02:55;;;;;;;50.83;7.57;;;;;;;;;;4988061;28;20029;-71
2022/01/29 08:05:20;;;;;;;47.10;6.38;;;;;;;;;;4986451;28;20129;-71
2022/01/29 08:07:47;;;;;;;48.95;7.68;;;;;;;;;;5002612;28;21919;-71
2022/01/29 08:10:12;;;;;;;47.05;7.22;;;;;;;;;;4991400;28;20118;-71
2022/01/29 08:12:37;;;;;;;43.28;7.05;;;;;;;;;;4987913;28;20501;-71
2022/01/29 08:15:04;;;;;;;54.97;6.70;;;;;;;;;;5001744;28;20119;-71
2022/01/29 08:17:31;;;;;;;49.58;7.80;;;;;;;;;;4987213;28;20501;-71
2022/01/29 08:19:57;;;;;;;45.17;7.40;;;;;;;;;;4991506;28;20026;-71
2022/01/29 08:22:23;;;;;;;46.03;7.65;;;;;;;;;;4987082;28;20117;-70
2022/01/29 08:24:48;;;;;;;45.60;6.53;;;;;;;;;;4987003;28;20042;-71
2022/01/29 08:27:14;;;;;;;44.50;7.25;;;;;;;;;;4987568;28;20030;-71
2022/01/29 08:29:39;;;;;;;42.88;6.53;;;;;;;;;;4987654;28;20052;-71
2022/01/29 08:32:04;;;;;;;48.40;7.20;;;;;;;;;;4987143;28;20033;-71
2022/01/29 08:34:35;;;;;;;38.70;6.38;;;;;;;;;;5001229;28;20037;-71
2022/01/29 08:37:03;;;;;;;40.97;7.05;;;;;;;;;;4986700;28;20030;-70
2022/01/29 08:39:28;;;;;;;48.15;7.05;;;;;;;;;;4987064;28;20056;-71
2022/01/29 08:41:54;;;;;;;37.50;7.28;;;;;;;;;;5001506;28;20030;-71
2022/01/29 08:44:21;;;;;;;45.42;6.68;;;;;;;;;;4986644;28;20038;-70
2022/01/29 08:46:47;;;;;;;54.50;6.90;;;;;;;;;;4987472;28;20048;-70
2022/01/29 08:49:12;;;;;;;46.53;6.88;;;;;;;;;;4986333;28;20502;-71
2022/01/29 08:51:37;;;;;;;48.60;7.88;;;;;;;;;;4986933;28;20117;-70
2022/01/29 08:54:05;;;;;;;42.45;6.78;;;;;;;;;;4986776;28;20385;-70
2022/01/29 08:56:30;;;;;;;45.20;6.15;;;;;;;;;;4987110;28;20022;-70
2022/01/29 08:58:58;;;;;;;44.03;7.47;;;;;;;;;;4986446;28;20069;-70
2022/01/29 09:01:24;;;;;;;49.08;7.35;;;;;;;;;;4987342;28;20121;-70
2022/01/29 09:03:50;;;;;;;37.03;6.15;;;;;;;;;;4986127;28;20078;-69
2022/01/29 09:06:18;;;;;;;43.08;6.75;;;;;;;;;;4987266;28;21750;-69
2022/01/29 09:08:48;;;;;;;44.17;6.20;;;;;;;;;;4986327;28;20454;-69
2022/01/29 09:11:14;;;;;;;45.90;7.38;;;;;;;;;;4975775;28;20125;-69
2022/01/29 09:13:39;;;;;;;53.08;7.32;;;;;;;;;;4978392;28;20041;-69
2022/01/29 09:16:07;;;;;;;48.65;7.07;;;;;;;;;;5006332;28;20045;-69
2022/01/29 09:18:35;;;;;;;47.95;6.25;;;;;;;;;;4990236;28;20247;-69
2022/01/29 09:21:00;;;;;;;51.42;7.05;;;;;;;;;;4990648;28;20684;-69
2022/01/29 09:23:26;;;;;;;54.28;7.00;;;;;;;;;;5004669;28;20037;-70
2022/01/29 09:25:52;;;;;;;53.30;7.43;;;;;;;;;;5004758;28;20124;-69
2022/01/29 09:28:17;;;;;;;52.83;7.38;;;;;;;;;;4990641;28;21846;-70
2022/01/29 09:30:48;;;;;;;46.50;7.22;;;;;;;;;;4989814;28;20044;-69
2022/01/29 09:33:16;;;;;;;49.13;7.03;;;;;;;;;;4993377;28;20123;-70
2022/01/29 09:35:42;;;;;;;42.97;6.53;;;;;;;;;;4990108;28;20064;-69
2022/01/29 09:38:09;;;;;;;62.92;8.88;;;;;;;;;;4990166;28;20494;-70
2022/01/29 09:40:35;;;;;;;50.90;7.75;;;;;;;;;;4990092;28;20518;-68
2022/01/29 09:43:05;;;;;;;52.13;7.38;;;;;;;;;;4990362;28;20253;-69
2022/01/29 09:45:34;;;;;;;47.58;6.57;;;;;;;;;;4994584;28;20118;-70
2022/01/29 09:48:02;;;;;;;43.10;7.82;;;;;;;;;;4989625;28;20044;-70
2022/01/29 09:50:35;;;;;;;32.90;5.93;;;;;;;;;;5003514;28;20773;-70
2022/01/29 09:53:02;;;;;;;37.00;6.15;;;;;;;;;;4988349;28;20026;-69
2022/01/29 09:55:30;;;;;;;37.33;6.38;;;;;;;;;;4977940;28;20030;-68
2022/01/29 09:57:59;;;;;;;32.42;5.38;;;;;;;;;;4989713;28;20118;-69
2022/01/29 10:00:26;;;;;;;37.63;6.50;;;;;;;;;;4989868;28;20485;-70
2022/01/29 10:03:14;;;;;;;37.53;6.55;;;;;;;;;;4988765;28;20053;-70
2022/01/29 10:05:42;;;;;;;37.40;6.43;;;;;;;;;;4989054;28;20040;-69
2022/01/29 10:08:09;;;;;;;37.72;6.38;;;;;;;;;;4993321;28;20306;-71
2022/01/29 10:10:39;;;;;;;46.00;6.07;;;;;;;;;;4993591;28;20038;-69
2022/01/29 10:13:23;;;;;;;42.58;6.20;;;;;;;;;;4989630;28;20018;-70
2022/01/29 10:15:50;;;;;;;31.58;5.45;;;;;;;;;;4989276;28;20029;-69
2022/01/29 10:18:22;;;;;;;36.47;5.43;;;;;;;;;;5003778;28;20033;-69
2022/01/29 10:20:56;;;;;;;41.40;5.90;;;;;;;;;;4989456;28;20445;-69
2022/01/29 10:23:28;;;;;;;43.67;6.07;;;;;;;;;;4989343;28;20038;-71
2022/01/29 10:25:54;;;;;;;36.28;5.55;;;;;;;;;;5004221;28;20394;-70
2022/01/29 10:28:20;;;;;;;35.58;5.93;;;;;;;;;;4989068;28;20033;-68
2022/01/29 10:30:49;;;;;;;38.53;6.68;;;;;;;;;;4992800;28;20085;-69
2022/01/29 10:33:15;;;;;;;36.40;6.47;;;;;;;;;;4992996;28;20057;-69
2022/01/29 10:35:44;;;;;;;37.42;5.70;;;;;;;;;;4987114;28;21832;-68
2022/01/29 10:38:10;;;;;;;37.03;5.57;;;;;;;;;;4989165;28;20045;-68
2022/01/29 10:40:38;;;;;;;37.65;6.28;;;;;;;;;;4988531;28;20096;-70
2022/01/29 10:43:05;;;;;;;36.35;6.07;;;;;;;;;;4988973;28;20038;-70
2022/01/29 10:45:36;;;;;;;44.03;6.32;;;;;;;;;;4989016;28;20036;-70
2022/01/29 10:48:06;;;;;;;35.70;6.50;;;;;;;;;;4992416;28;20637;-70
2022/01/29 10:50:32;;;;;;;44.10;7.30;;;;;;;;;;4987735;28;20025;-70
2022/01/29 10:52:58;;;;;;;39.70;6.97;;;;;;;;;;4988473;28;20421;-68
2022/01/29 10:55:23;;;;;;;36.22;6.53;;;;;;;;;;4989135;28;20022;-69
2022/01/29 10:57:51;;;;;;;41.13;6.72;;;;;;;;;;5002775;28;21807;-70
2022/01/29 11:00:17;;;;;;;52.78;6.50;;;;;;;;;;4992891;28;20033;-69
2022/01/29 11:02:45;;;;;;;43.17;6.25;;;;;;;;;;4987385;28;20456;-69
2022/01/29 11:05:11;;;;;;;41.55;5.88;;;;;;;;;;4991955;28;20050;-70
2022/01/29 11:07:37;;;;;;;41.92;6.03;;;;;;;;;;4989007;28;20082;-70
2022/01/29 11:10:09;;;;;;;38.90;5.72;;;;;;;;;;4987528;28;20073;-70
2022/01/29 11:12:36;;;;;;;41.60;5.93;;;;;;;;;;4988397;28;20037;-70
2022/01/29 11:15:02;;;;;;;37.72;5.75;;;;;;;;;;4988406;28;20037;-70
2022/01/29 11:17:29;;;;;;;44.55;6.10;;;;;;;;;;5003091;28;20018;-71
2022/01/29 11:19:54;;;;;;;36.78;5.07;;;;;;;;;;4987186;28;20258;-68
2022/01/29 11:22:30;;;;;;;49.28;6.28;;;;;;;;;;4991766;28;20037;-69
2022/01/29 11:25:02;;;;;;;43.13;5.32;;;;;;;;;;4987963;28;20037;-69
2022/01/29 11:27:29;;;;;;;38.35;6.10;;;;;;;;;;4986546;28;20040;-70
2022/01/29 11:30:04;;;;;;;41.45;6.32;;;;;;;;;;4991653;28;20458;-69
2022/01/29 11:32:34;;;;;;;31.70;5.82;;;;;;;;;;4992244;28;20026;-69
2022/01/29 11:35:31;;;;;;;53.17;6.60;;;;;;;;;;4986135;28;20248;-69
2022/01/29 11:38:02;;;;;;;35.40;6.40;;;;;;;;;;4981504;28;20047;-70
2022/01/29 11:40:32;;;;;;;49.42;7.63;;;;;;;;;;4991005;28;20119;-68
2022/01/29 11:43:09;;;;;;;47.30;7.35;;;;;;;;;;4988240;28;20025;-70
2022/01/29 11:45:45;;;;;;;38.08;6.45;;;;;;;;;;4988280;28;20045;-70
2022/01/29 11:48:24;;;;;;;38.92;6.97;;;;;;;;;;4986806;28;20353;-69
2022/01/29 11:50:49;;;;;;;42.15;7.57;;;;;;;;;;4987209;28;20533;-70
2022/01/29 11:53:18;;;;;;;53.78;6.78;;;;;;;;;;4986030;28;20042;-70
2022/01/29 11:55:44;;;;;;;42.80;7.43;;;;;;;;;;4987885;28;20521;-70
2022/01/29 11:58:13;;;;;;;50.33;6.85;;;;;;;;;;4986712;28;20026;-69
2022/01/29 12:00:41;;;;;;;37.85;5.70;;;;;;;;;;4992188;28;20053;-69
2022/01/29 12:03:07;;;;;;;35.22;7.03;;;;;;;;;;4975475;28;20064;-70
2022/01/29 12:05:52;;;;;;;46.15;5.53;;;;;;;;;;4987966;28;20038;-71
2022/01/29 12:08:20;;;;;;;45.38;6.38;;;;;;;;;;4975550;28;20121;-72
2022/01/29 12:10:54;;;;;;;37.08;6.25;;;;;;;;;;4980694;28;21802;-72
2022/01/29 12:13:19;;;;;;;38.50;6.97;;;;;;;;;;4987194;28;20441;-72
2022/01/29 12:15:47;;;;;;;40.83;6.97;;;;;;;;;;4970219;28;20031;-71
2022/01/29 12:18:33;;;;;;;42.35;7.05;;;;;;;;;;4986941;28;20086;-72
2022/01/29 12:21:00;;;;;;;45.60;7.00;;;;;;;;;;4986854;28;20453;-70
2022/01/29 12:23:25;;;;;;;45.85;7.07;;;;;;;;;;4987015;28;20246;-70
2022/01/29 12:25:58;;;;;;;33.28;6.10;;;;;;;;;;4987352;28;20364;-72
2022/01/29 12:28:24;;;;;;;50.60;6.90;;;;;;;;;;4986631;28;20034;-72
2022/01/29 12:30:50;;;;;;;31.13;5.25;;;;;;;;;;4988215;28;20128;-71
2022/01/29 12:33:16;;;;;;;48.17;7.90;;;;;;;;;;5002454;28;20036;-71
2022/01/29 12:35:58;;;;;;;38.50;5.82;;;;;;;;;;4986744;28;20029;-71
2022/01/29 12:38:29;;;;;;;45.47;6.28;;;;;;;;;;4987740;28;20029;-71
2022/01/29 12:40:59;;;;;;;33.30;5.43;;;;;;;;;;4985480;28;20049;-71
2022/01/29 12:43:37;;;;;;;38.25;5.82;;;;;;;;;;4988027;28;20034;-72
2022/01/29 12:46:08;;;;;;;30.13;5.22;;;;;;;;;;4970643;28;20173;-72
2022/01/29 12:48:34;;;;;;;35.70;5.25;;;;;;;;;;4991313;28;20038;-71
2022/01/29 12:51:03;;;;;;;39.20;6.03;;;;;;;;;;4995344;28;20143;-71
2022/01/29 12:53:29;;;;;;;34.67;6.03;;;;;;;;;;4993638;28;20057;-71
2022/01/29 12:56:04;;;;;;;33.83;4.97;;;;;;;;;;4990811;28;20749;-72
2022/01/29 12:58:30;;;;;;;39.45;5.78;;;;;;;;;;4991554;28;20029;-72
2022/01/29 13:01:25;;;;;;;43.25;6.90;;;;;;;;;;4990956;28;20038;-72
2022/01/29 13:03:59;;;;;;;42.47;6.30;;;;;;;;;;4987010;28;20050;-72
2022/01/29 13:06:26;;;;;;;37.58;6.18;;;;;;;;;;4992061;28;20040;-71
2022/01/29 13:08:51;;;;;;;38.53;6.05;;;;;;;;;;4994624;28;20026;-71
2022/01/29 13:11:20;;;;;;;35.45;8.18;;;;;;;;;;5005167;28;20405;-70
2022/01/29 13:13:48;;;;;;;38.00;6.72;;;;;;;;;;4990949;28;20029;-71
2022/01/29 13:16:13;;;;;;;36.03;5.57;;;;;;;;;;4990875;28;20034;-71
2022/01/29 13:18:39;;;;;;;40.38;6.38;;;;;;;;;;4990109;28;20507;-71
2022/01/29 13:21:04;;;;;;;45.70;6.57;;;;;;;;;;4991835;28;20030;-70
2022/01/29 13:23:33;;;;;;;45.63;7.43;;;;;;;;;;4990073;28;20037;-72
2022/01/29 13:25:58;;;;;;;42.40;7.53;;;;;;;;;;4990658;28;20046;-74
2022/01/29 13:28:27;;;;;;;47.15;7.25;;;;;;;;;;4990282;28;20296;-71
2022/01/29 13:31:03;;;;;;;41.30;6.97;;;;;;;;;;4990472;28;20026;-71
2022/01/29 13:33:33;;;;;;;38.03;6.70;;;;;;;;;;4990829;28;20097;-71
2022/01/29 13:35:59;;;;;;;41.78;7.88;;;;;;;;;;4990653;28;20432;-72
2022/01/29 13:38:29;;;;;;;40.00;7.78;;;;;;;;;;4990196;28;20286;-72
2022/01/29 13:40:58;;;;;;;34.95;6.15;;;;;;;;;;5004090;28;20141;-69
2022/01/29 13:43:32;;;;;;;37.03;6.47;;;;;;;;;;5004997;28;20520;-71
2022/01/29 13:46:04;;;;;;;46.50;6.68;;;;;;;;;;4989972;28;20026;-72
2022/01/29 13:48:55;;;;;;;39.03;6.38;;;;;;;;;;4989883;28;20053;-71
2022/01/29 13:51:31;;;;;;;42.38;6.47;;;;;;;;;;4988345;28;20033;-72
2022/01/29 13:53:58;;;;;;;51.55;7.85;;;;;;;;;;4989857;28;20029;-73
2022/01/29 13:56:24;;;;;;;44.72;6.70;;;;;;;;;;4993808;28;20033;-72
2022/01/29 13:58:59;;;;;;;40.47;7.47;;;;;;;;;;4989771;28;20521;-72
2022/01/29 14:01:33;;;;;;;40.00;6.82;;;;;;;;;;4990136;28;20025;-71
2022/01/29 14:04:01;;;;;;;54.55;8.07;;;;;;;;;;4993930;28;20092;-73
2022/01/29 14:06:37;;;;;;;40.78;6.90;;;;;;;;;;4977019;28;20030;-72
2022/01/29 14:09:37;;;;;;;41.67;7.03;;;;;;;;;;5004477;28;20037;-72
2022/01/29 14:12:16;;;;;;;49.95;7.68;;;;;;;;;;4986430;28;20695;-72
2022/01/29 14:14:41;;;;;;;45.20;7.40;;;;;;;;;;4977329;28;20022;-72
2022/01/29 14:17:13;;;;;;;50.88;7.25;;;;;;;;;;4989371;28;20029;-71
2022/01/29 14:19:39;;;;;;;46.80;8.07;;;;;;;;;;4989383;28;20036;-72
2022/01/29 14:22:07;;;;;;;40.88;6.40;;;;;;;;;;4988034;28;20105;-72
2022/01/29 14:24:35;;;;;;;45.63;6.70;;;;;;;;;;4983395;28;20166;-71
2022/01/29 14:27:01;;;;;;;32.95;6.18;;;;;;;;;;4994094;28;20053;-74
2022/01/29 14:29:29;;;;;;;50.55;7.00;;;;;;;;;;4989828;28;20120;-72
2022/01/29 14:31:55;;;;;;;46.47;7.57;;;;;;;;;;5004864;28;20030;-71
2022/01/29 14:34:22;;;;;;;43.53;6.30;;;;;;;;;;5002867;28;20037;-72
2022/01/29 14:36:54;;;;;;;43.58;6.25;;;;;;;;;;4988969;28;20026;-72
2022/01/29 14:39:23;;;;;;;50.92;7.47;;;;;;;;;;5002245;28;20067;-72
2022/01/29 14:41:52;;;;;;;45.05;6.40;;;;;;;;;;4987039;28;20061;-70